Terminal Aerodrome Forecast
Issued by NWS

Home | Current Version | Previous Version | Graphics & Text | Print | Product List | Glossary Off
Versions: 1 2 3 4 5 6 7 8 9 10 11 12 13

000
FTUS43 KGRB 222320
TAFATW
TAF
KATW 222320Z 2300/2324 14006KT P6SM BKN200
     FM230800 16006KT P6SM BKN110
     FM231200 15009KT P6SM OVC080
     FM231600 16014G21KT P6SM OVC080
     FM232200 16010G16KT P6SM VCSH OVC045=

USA.gov is the U.S. government's official web portal to all federal, state and local government web resources and services.